createdAt,value
2017-06-21T11:15:16.813Z,5.23
2017-06-21T11:17:42.672Z,6.80
2017-06-21T11:20:08.573Z,6.80
2017-06-21T11:22:34.577Z,7.00
2017-06-21T11:25:00.475Z,6.40
2017-06-21T11:27:26.388Z,5.57
2017-06-21T11:29:52.528Z,5.60
2017-06-21T11:32:18.442Z,5.80
2017-06-21T11:34:44.335Z,5.83
2017-06-21T11:37:10.280Z,5.07
2017-06-21T11:39:36.174Z,4.93
2017-06-21T11:42:02.141Z,5.13
2017-06-21T11:44:28.074Z,5.67
2017-06-21T11:46:53.964Z,5.27
2017-06-21T11:49:20.012Z,5.73
2017-06-21T11:51:45.908Z,5.10
2017-06-21T11:54:11.890Z,5.87
2017-06-21T11:56:37.826Z,5.90
2017-06-21T11:59:03.780Z,5.10
2017-06-21T12:01:29.715Z,5.77
2017-06-21T12:03:55.546Z,6.00
2017-06-21T12:06:21.638Z,6.83
2017-06-21T12:08:47.522Z,5.80
2017-06-21T12:11:13.583Z,6.47
2017-06-21T12:13:39.536Z,5.83
2017-06-21T12:16:05.365Z,5.57
2017-06-21T12:18:31.256Z,6.13
2017-06-21T12:20:57.155Z,5.00
2017-06-21T12:23:23.012Z,6.67
2017-06-21T12:25:48.907Z,6.03
2017-06-21T12:28:14.820Z,5.93
2017-06-21T12:30:40.713Z,5.97
2017-06-21T12:33:06.742Z,5.83
2017-06-21T12:35:32.663Z,6.50
2017-06-21T12:37:58.536Z,5.77
2017-06-21T12:40:24.501Z,6.20
2017-06-21T12:42:50.468Z,6.17
2017-06-21T12:45:16.439Z,5.43
2017-06-21T12:47:42.313Z,6.20
2017-06-21T12:50:08.228Z,6.40
2017-06-21T12:52:34.150Z,6.10
2017-06-21T12:55:00.051Z,5.57
2017-06-21T12:57:25.967Z,6.50
2017-06-21T12:59:51.943Z,5.50
2017-06-21T13:02:17.808Z,6.07
2017-06-21T13:04:43.761Z,6.30
2017-06-21T13:07:09.601Z,5.57
2017-06-21T13:09:35.501Z,6.53
2017-06-21T13:12:01.472Z,5.83
2017-06-21T13:14:27.475Z,6.37
2017-06-21T13:16:53.322Z,5.83
2017-06-21T13:19:19.347Z,6.40
2017-06-21T13:21:45.227Z,5.63
2017-06-21T13:24:12.092Z,5.10
2017-06-21T13:26:38.050Z,6.47
2017-06-21T13:29:04.109Z,7.03
2017-06-21T13:31:30.036Z,6.23
2017-06-21T13:33:55.897Z,5.77
2017-06-21T13:36:21.752Z,6.87
2017-06-21T13:38:47.688Z,6.53
2017-06-21T13:41:13.613Z,6.30
2017-06-21T13:43:39.576Z,6.10
2017-06-21T13:46:05.444Z,5.50
2017-06-21T13:48:31.404Z,5.90
2017-06-21T13:50:57.285Z,6.27
2017-06-21T13:53:23.249Z,6.30
2017-06-21T13:55:49.084Z,5.60
2017-06-21T13:58:14.951Z,5.93
2017-06-21T14:00:41.283Z,6.17
2017-06-21T14:03:07.130Z,5.80
2017-06-21T14:05:33.003Z,5.00
2017-06-21T14:07:58.974Z,5.23
2017-06-21T14:10:24.913Z,5.23
2017-06-21T14:12:50.844Z,5.10
2017-06-21T14:15:16.691Z,5.10
2017-06-21T14:17:42.548Z,6.10
2017-06-21T14:20:08.440Z,5.50
2017-06-21T14:22:34.321Z,5.47
2017-06-21T14:25:00.200Z,5.07
2017-06-21T14:27:26.146Z,6.03
2017-06-21T14:29:52.061Z,5.00
2017-06-21T14:32:17.976Z,4.30
2017-06-21T14:34:43.812Z,4.90
2017-06-21T14:37:09.693Z,4.57
2017-06-21T14:39:35.909Z,5.77
2017-06-21T14:42:01.983Z,4.90
2017-06-21T14:44:27.939Z,5.03
2017-06-21T14:46:53.775Z,5.20
2017-06-21T14:49:19.772Z,4.50
2017-06-21T14:51:45.765Z,4.90
2017-06-21T14:54:11.657Z,4.60
2017-06-21T14:56:37.662Z,4.50
2017-06-21T14:59:03.526Z,5.50
2017-06-21T15:01:29.449Z,4.60
2017-06-21T15:03:55.395Z,4.90
2017-06-21T15:06:21.274Z,4.30
2017-06-21T15:08:47.140Z,3.93
2017-06-21T15:11:13.001Z,6.00
2017-06-21T15:13:38.939Z,5.60
2017-06-21T15:16:04.853Z,5.27
2017-06-21T15:18:30.790Z,4.83
2017-06-21T15:20:56.648Z,4.70
2017-06-21T15:23:22.536Z,4.70
2017-06-21T15:25:48.459Z,4.20
2017-06-21T15:28:14.474Z,4.53
2017-06-21T15:30:40.404Z,4.77
2017-06-21T15:33:06.265Z,5.07
2017-06-21T15:35:32.168Z,4.63
2017-06-21T15:37:58.092Z,4.27
2017-06-21T15:40:23.998Z,4.40
2017-06-21T15:42:49.931Z,4.17
2017-06-21T15:45:15.839Z,3.97
2017-06-21T15:47:41.777Z,4.63
2017-06-21T15:50:07.660Z,4.13
2017-06-21T15:52:33.645Z,3.80
2017-06-21T15:54:59.521Z,3.90
2017-06-21T15:57:26.292Z,4.30
2017-06-21T15:59:52.177Z,4.10
2017-06-21T16:02:18.131Z,3.43
2017-06-21T16:04:44.056Z,2.23
2017-06-21T16:07:10.036Z,3.80
2017-06-21T16:09:35.963Z,3.60
2017-06-21T16:12:01.852Z,3.30
2017-06-21T16:14:27.777Z,3.60
2017-06-21T16:16:53.624Z,3.80
2017-06-21T16:19:19.456Z,4.70
2017-06-21T16:21:45.374Z,3.43
2017-06-21T16:24:11.940Z,3.40
2017-06-21T16:26:37.836Z,3.63
2017-06-21T16:29:03.789Z,3.90
2017-06-21T16:31:29.757Z,3.60
2017-06-21T16:33:55.707Z,3.33
2017-06-21T16:36:21.683Z,3.10
2017-06-21T16:38:47.573Z,3.07
2017-06-21T16:41:13.544Z,2.97
2017-06-21T16:43:39.387Z,3.40
2017-06-21T16:46:05.359Z,2.80
2017-06-21T16:48:31.224Z,3.30
2017-06-21T16:50:57.324Z,3.50
2017-06-21T16:53:23.284Z,3.53
2017-06-21T16:55:49.223Z,3.43
2017-06-21T16:58:15.083Z,3.30
2017-06-21T17:00:41.152Z,3.70
2017-06-21T17:03:07.096Z,3.70
2017-06-21T17:05:33.009Z,4.20
2017-06-21T17:07:59.011Z,4.27
2017-06-21T17:10:24.949Z,3.40
2017-06-21T17:12:50.833Z,4.00
2017-06-21T17:15:16.650Z,4.27
2017-06-21T17:17:42.490Z,4.23
2017-06-21T17:20:08.507Z,4.73
2017-06-21T17:22:34.476Z,4.13
2017-06-21T17:25:00.348Z,5.23
2017-06-21T17:27:26.186Z,4.87
2017-06-21T17:29:52.112Z,5.17
2017-06-21T17:32:17.959Z,5.20
2017-06-21T17:34:43.773Z,5.30
2017-06-21T17:37:09.665Z,5.70
2017-06-21T17:39:35.591Z,5.63
2017-06-21T17:42:01.442Z,5.17
2017-06-21T17:44:27.283Z,5.20
2017-06-21T17:46:53.170Z,5.47
2017-06-21T17:49:19.064Z,5.50
2017-06-21T17:51:44.912Z,4.73
2017-06-21T17:54:10.793Z,5.23
2017-06-21T17:56:36.627Z,5.23
2017-06-21T17:59:02.477Z,5.33
2017-06-21T18:01:28.516Z,4.07
2017-06-21T18:03:54.398Z,4.90
2017-06-21T18:06:20.224Z,5.20
2017-06-21T18:08:46.082Z,4.57
2017-06-21T18:11:11.892Z,4.23
2017-06-21T18:13:37.779Z,4.73
2017-06-21T18:16:03.703Z,4.30
2017-06-21T18:18:30.558Z,5.50
2017-06-21T18:20:56.519Z,5.60
2017-06-21T18:23:22.398Z,5.03
2017-06-21T18:25:49.106Z,5.90
2017-06-21T18:28:14.970Z,4.93
2017-06-21T18:30:40.991Z,5.47
2017-06-21T18:33:06.896Z,4.83
2017-06-21T18:35:32.765Z,5.00
2017-06-21T18:37:58.849Z,5.33
2017-06-21T18:40:24.766Z,4.50
2017-06-21T18:42:50.652Z,4.97
2017-06-21T18:45:16.601Z,4.83
2017-06-21T18:47:42.498Z,5.07
2017-06-21T18:50:08.336Z,5.17
2017-06-21T18:52:34.245Z,5.10
2017-06-21T18:55:00.183Z,5.70
2017-06-21T18:57:26.072Z,5.10
2017-06-21T18:59:51.983Z,5.67
2017-06-21T19:02:17.875Z,4.77
2017-06-21T19:04:43.803Z,5.90
2017-06-21T19:07:09.648Z,6.20
2017-06-21T19:09:35.521Z,5.00
2017-06-21T19:12:01.456Z,5.80
2017-06-21T19:14:27.267Z,5.07
2017-06-21T19:16:53.167Z,4.63
2017-06-21T19:19:19.036Z,5.47
2017-06-21T19:21:44.971Z,5.70
2017-06-21T19:24:10.863Z,5.50
2017-06-21T19:26:37.420Z,6.03
2017-06-21T19:29:03.300Z,6.10
2017-06-21T19:31:29.241Z,6.33
2017-06-21T19:33:55.144Z,6.00
2017-06-21T19:36:21.086Z,5.73
2017-06-21T19:38:46.931Z,6.30
2017-06-21T19:41:12.807Z,7.40
2017-06-21T19:43:38.835Z,6.67
2017-06-21T19:46:04.769Z,6.30
2017-06-21T19:48:30.599Z,6.00
2017-06-21T19:50:56.420Z,7.17
2017-06-21T19:53:22.236Z,6.27
2017-06-21T19:55:48.229Z,6.40
2017-06-21T19:58:14.078Z,6.60
2017-06-21T20:00:40.072Z,5.80
2017-06-21T20:03:05.979Z,6.60
2017-06-21T20:05:31.829Z,7.03
2017-06-21T20:07:57.826Z,6.60
2017-06-21T20:10:23.667Z,7.23
2017-06-21T20:12:49.682Z,6.57
2017-06-21T20:15:15.552Z,6.00
2017-06-21T20:17:41.497Z,6.13
2017-06-21T20:20:07.376Z,6.47
2017-06-21T20:22:33.332Z,6.50
2017-06-21T20:24:59.293Z,6.30
2017-06-21T20:27:25.114Z,6.83
2017-06-21T20:29:50.943Z,6.97
2017-06-21T20:32:16.809Z,6.00
2017-06-21T20:34:42.747Z,6.40
2017-06-21T20:37:08.580Z,7.00
2017-06-21T20:39:34.402Z,6.47
2017-06-21T20:42:01.281Z,6.60
2017-06-21T20:44:27.267Z,6.60
2017-06-21T20:46:53.103Z,6.87
2017-06-21T20:49:19.139Z,6.80
2017-06-21T20:51:45.081Z,7.30
2017-06-21T20:54:10.905Z,6.63
2017-06-21T20:56:36.856Z,6.77
2017-06-21T20:59:02.773Z,29.60
2017-06-21T21:01:28.608Z,10.47
2017-06-21T21:03:54.485Z,10.27
2017-06-21T21:06:20.817Z,7.43
2017-06-21T21:08:46.756Z,7.73
2017-06-21T21:11:12.680Z,8.10
2017-06-21T21:13:38.560Z,7.23
2017-06-21T21:16:04.436Z,7.83
2017-06-21T21:18:30.324Z,8.00
2017-06-21T21:20:56.200Z,7.40
2017-06-21T21:23:22.085Z,7.70
2017-06-21T21:25:48.049Z,9.13
2017-06-21T21:28:13.904Z,8.90
2017-06-21T21:30:39.900Z,8.07
2017-06-21T21:33:05.748Z,8.57
2017-06-21T21:35:31.745Z,8.40
2017-06-21T21:37:57.600Z,7.23
2017-06-21T21:40:23.579Z,8.80
2017-06-21T21:42:49.408Z,9.00
2017-06-21T21:45:15.373Z,8.53
2017-06-21T21:47:41.275Z,8.40
2017-06-21T21:50:07.259Z,8.20
2017-06-21T21:52:33.112Z,9.00
2017-06-21T21:54:59.109Z,8.73
2017-06-21T21:57:25.840Z,8.80
2017-06-21T21:59:51.713Z,8.23
2017-06-21T22:02:17.571Z,8.03
2017-06-21T22:04:43.488Z,8.40
2017-06-21T22:07:09.403Z,9.07
2017-06-21T22:09:35.295Z,9.27
2017-06-21T22:12:01.377Z,9.33
2017-06-21T22:14:27.256Z,9.07
2017-06-21T22:16:53.132Z,10.40
2017-06-21T22:19:19.010Z,9.40
2017-06-21T22:21:45.763Z,9.20
2017-06-21T22:24:11.676Z,9.77
2017-06-21T22:26:37.628Z,8.87
2017-06-21T22:29:03.462Z,9.00
2017-06-21T22:31:29.359Z,8.97
2017-06-21T22:33:55.267Z,9.73
2017-06-21T22:36:21.132Z,9.63
2017-06-21T22:38:47.047Z,9.50
2017-06-21T22:41:12.984Z,10.30
2017-06-21T22:43:38.859Z,10.20
2017-06-21T22:46:04.827Z,10.53
2017-06-21T22:48:30.680Z,9.97
2017-06-21T22:50:56.629Z,10.13
2017-06-21T22:53:22.603Z,9.70
2017-06-21T22:55:48.489Z,10.30
2017-06-21T22:58:14.568Z,10.60
2017-06-21T23:00:40.541Z,10.30
2017-06-21T23:03:06.411Z,10.37
2017-06-21T23:05:32.377Z,10.47
2017-06-21T23:07:58.260Z,9.83
2017-06-21T23:10:24.200Z,9.70
2017-06-21T23:12:50.105Z,9.83
2017-06-21T23:15:16.016Z,9.40
2017-06-21T23:17:41.911Z,10.87
2017-06-21T23:20:07.795Z,10.40
2017-06-21T23:22:33.672Z,10.27
2017-06-21T23:24:59.527Z,11.40
2017-06-21T23:27:25.396Z,10.80
2017-06-21T23:29:51.271Z,10.70
2017-06-21T23:32:17.184Z,12.17
2017-06-21T23:34:43.092Z,12.43
2017-06-21T23:37:09.011Z,11.13
2017-06-21T23:39:34.919Z,12.30
2017-06-21T23:42:00.847Z,10.60
2017-06-21T23:44:26.731Z,11.10
2017-06-21T23:46:52.609Z,11.70
2017-06-21T23:49:18.515Z,12.37
2017-06-21T23:51:44.476Z,11.37
2017-06-21T23:54:10.404Z,10.77
2017-06-21T23:56:36.270Z,11.20
2017-06-21T23:59:02.297Z,10.90
